createdAt,value
2018-05-03T00:01:48.351Z,99506.41
2018-05-03T00:04:16.800Z,99506.84
2018-05-03T00:06:45.228Z,99500.59
2018-05-03T00:09:13.648Z,99501.52
2018-05-03T00:11:42.096Z,99491.95
2018-05-03T00:14:10.508Z,99491.06
2018-05-03T00:16:38.916Z,99492.55
2018-05-03T00:19:07.376Z,99490.05
2018-05-03T00:21:35.800Z,99498.91
2018-05-03T00:24:04.217Z,99502.10
2018-05-03T00:26:32.683Z,99496.63
2018-05-03T00:29:01.096Z,99502.47
2018-05-03T00:31:29.521Z,99496.81
2018-05-03T00:33:57.998Z,99507.11
2018-05-03T00:36:26.427Z,99510.06
2018-05-03T00:38:54.842Z,99511.06
2018-05-03T00:41:23.320Z,99516.92
2018-05-03T00:43:51.732Z,99520.41
2018-05-03T00:46:20.143Z,99518.43
2018-05-03T00:48:48.596Z,99510.78
2018-05-03T00:51:17.028Z,99513.98
2018-05-03T00:53:45.444Z,99507.21
2018-05-03T00:56:13.930Z,99513.00
2018-05-03T00:58:42.348Z,99516.94
2018-05-03T01:01:10.771Z,99515.86
2018-05-03T01:03:39.248Z,99523.72
2018-05-03T01:06:07.664Z,99526.31
2018-05-03T01:08:36.072Z,99525.05
2018-05-03T01:11:04.533Z,99520.39
2018-05-03T01:13:32.951Z,99511.73
2018-05-03T01:16:01.365Z,99512.69
2018-05-03T01:18:29.831Z,99510.38
2018-05-03T01:20:58.250Z,99512.66
2018-05-03T01:23:26.669Z,99510.39
2018-05-03T01:25:55.127Z,99514.59
2018-05-03T01:28:23.561Z,99511.90
2018-05-03T01:30:51.988Z,99522.30
2018-05-03T01:33:20.436Z,99517.62
2018-05-03T01:36:00.716Z,99521.80
2018-05-03T01:38:29.176Z,99526.72
2018-05-03T01:40:57.607Z,99519.67
2018-05-03T01:43:26.032Z,99522.52
2018-05-03T01:45:54.487Z,99519.17
2018-05-03T01:48:22.898Z,99531.42
2018-05-03T01:50:51.328Z,99540.91
2018-05-03T01:53:19.780Z,99538.05
2018-05-03T01:55:48.204Z,99543.41
2018-05-03T01:58:16.615Z,99538.91
2018-05-03T02:00:45.090Z,99543.61
2018-05-03T02:03:13.500Z,99549.64
2018-05-03T02:05:41.950Z,99557.36
2018-05-03T02:08:10.601Z,99557.11
2018-05-03T02:10:39.045Z,99566.48
2018-05-03T02:13:07.462Z,99570.16
2018-05-03T02:15:35.932Z,99573.08
2018-05-03T02:18:04.389Z,99571.06
2018-05-03T02:20:32.804Z,99568.67
2018-05-03T02:23:01.264Z,99565.48
2018-05-03T02:25:29.681Z,99573.14
2018-05-03T02:27:58.101Z,99570.46
2018-05-03T02:30:26.549Z,99570.59
2018-05-03T02:32:54.971Z,99571.94
2018-05-03T02:35:23.388Z,99565.03
2018-05-03T02:37:51.841Z,99563.55
2018-05-03T02:40:20.251Z,99558.35
2018-05-03T02:42:48.670Z,99567.66
2018-05-03T02:45:17.128Z,99562.41
2018-05-03T02:47:45.544Z,99572.08
2018-05-03T02:50:13.976Z,99579.52
2018-05-03T02:52:42.438Z,99579.12
2018-05-03T02:55:10.857Z,99580.52
2018-05-03T02:57:56.917Z,99581.37
2018-05-03T03:00:42.839Z,99580.28
2018-05-03T03:03:28.804Z,99578.70
2018-05-03T03:06:09.109Z,99579.53
2018-05-03T03:09:06.501Z,99585.12
2018-05-03T03:15:06.284Z,99583.44
2018-05-03T03:17:52.344Z,99582.03
2018-05-03T03:23:47.624Z,99589.87
2018-05-03T03:29:59.540Z,99580.19
2018-05-03T03:32:39.804Z,99578.51
2018-05-03T03:38:34.879Z,99578.34
2018-05-03T03:41:15.003Z,99581.91
2018-05-03T03:43:55.088Z,99583.34
2018-05-03T03:46:23.503Z,99582.77
2018-05-03T03:48:51.917Z,99587.83
2018-05-03T03:51:20.366Z,99592.25
2018-05-03T03:53:48.789Z,99592.66
2018-05-03T03:56:17.208Z,99595.91
2018-05-03T03:58:45.663Z,99601.53
2018-05-03T04:01:14.084Z,99595.30
2018-05-03T04:03:42.494Z,99592.14
2018-05-03T04:06:10.936Z,99605.34
2018-05-03T04:08:39.353Z,99608.59
2018-05-03T04:11:07.768Z,99613.59
2018-05-03T04:13:36.244Z,99619.66
2018-05-03T04:16:04.657Z,99624.31
2018-05-03T04:18:44.971Z,99622.09
2018-05-03T04:21:25.252Z,99626.30
2018-05-03T04:24:14.256Z,99625.28
2018-05-03T04:26:42.672Z,99628.40
2018-05-03T04:29:11.084Z,99624.12
2018-05-03T04:31:39.557Z,99629.32
2018-05-03T04:34:07.985Z,99645.42
2018-05-03T04:36:36.399Z,99652.35
2018-05-03T04:39:05.797Z,99659.20
2018-05-03T04:41:34.200Z,99660.38
2018-05-03T04:44:02.632Z,99668.39
2018-05-03T04:46:31.085Z,99663.97
2018-05-03T04:48:59.500Z,99671.10
2018-05-03T04:51:27.917Z,99678.38
2018-05-03T04:53:56.376Z,99684.12
2018-05-03T04:56:24.801Z,99692.84
2018-05-03T04:58:53.216Z,99691.57
2018-05-03T05:01:21.675Z,99698.42
2018-05-03T05:03:50.080Z,99714.98
2018-05-03T05:06:18.492Z,99715.59
2018-05-03T05:08:46.965Z,99717.50
2018-05-03T05:11:15.381Z,99725.95
2018-05-03T05:13:43.801Z,99728.88
2018-05-03T05:16:12.276Z,99726.25
2018-05-03T05:18:40.692Z,99727.05
2018-05-03T05:21:09.112Z,99738.24
2018-05-03T05:23:37.632Z,99730.45
2018-05-03T05:26:06.040Z,99736.52
2018-05-03T05:28:34.456Z,99744.45
2018-05-03T05:31:02.932Z,99748.25
2018-05-03T05:33:31.357Z,99749.27
2018-05-03T05:35:59.779Z,99750.65
2018-05-03T05:38:28.233Z,99757.51
2018-05-03T05:40:56.703Z,99755.00
2018-05-03T05:43:25.127Z,99756.78
2018-05-03T05:45:53.576Z,99760.44
2018-05-03T05:48:21.977Z,99758.63
2018-05-03T05:50:50.401Z,99758.08
2018-05-03T05:53:18.865Z,99758.22
2018-05-03T05:55:47.296Z,99760.83
2018-05-03T05:58:15.720Z,99761.95
2018-05-03T06:00:44.188Z,99763.78
2018-05-03T06:03:12.597Z,99767.44
2018-05-03T06:05:41.027Z,99771.91
2018-05-03T06:08:09.514Z,99772.30
2018-05-03T06:10:38.024Z,99773.14
2018-05-03T06:13:06.457Z,99785.58
2018-05-03T06:15:34.935Z,99781.64
2018-05-03T06:18:03.369Z,99793.02
2018-05-03T06:20:31.796Z,99789.35
2018-05-03T06:23:00.285Z,99793.81
2018-05-03T06:25:28.728Z,99799.80
2018-05-03T06:27:57.161Z,99804.34
2018-05-03T06:30:25.656Z,99806.20
2018-05-03T06:32:54.090Z,99808.84
2018-05-03T06:35:22.543Z,99804.27
2018-05-03T06:37:51.033Z,99806.08
2018-05-03T06:40:19.468Z,99820.36
2018-05-03T06:42:47.903Z,99829.67
2018-05-03T06:45:16.460Z,99839.17
2018-05-03T06:47:44.832Z,99843.89
2018-05-03T06:50:13.276Z,99845.05
2018-05-03T06:52:41.741Z,99843.90
2018-05-03T06:55:10.177Z,99841.58
2018-05-03T06:57:38.624Z,99847.71
2018-05-03T07:00:07.108Z,99847.47
2018-05-03T07:02:35.547Z,99850.05
2018-05-03T07:05:04.085Z,99860.91
2018-05-03T07:07:32.572Z,99858.50
2018-05-03T07:10:01.096Z,99860.25
2018-05-03T07:12:29.484Z,99872.63
2018-05-03T07:14:57.969Z,99870.92
2018-05-03T07:17:26.512Z,99874.06
2018-05-03T07:19:54.947Z,99887.81
2018-05-03T07:22:23.439Z,99891.47
2018-05-03T07:24:51.879Z,99892.05
2018-05-03T07:27:20.315Z,99895.98
2018-05-03T07:29:48.776Z,99896.19
2018-05-03T07:32:17.223Z,99893.72
2018-05-03T07:34:45.675Z,99902.14
2018-05-03T07:37:14.148Z,99909.67
2018-05-03T07:39:42.575Z,99908.73
2018-05-03T07:42:11.000Z,99908.09
2018-05-03T07:44:39.460Z,99914.48
2018-05-03T07:47:07.901Z,99916.13
2018-05-03T07:49:36.328Z,99913.53
2018-05-03T07:52:04.831Z,99910.12
2018-05-03T07:54:33.264Z,99914.59
2018-05-03T07:57:01.680Z,99911.97
2018-05-03T07:59:30.151Z,99918.31
2018-05-03T08:01:58.606Z,99926.14
2018-05-03T08:04:27.052Z,99929.84
2018-05-03T08:06:55.533Z,99935.86
2018-05-03T08:09:23.951Z,99932.25
2018-05-03T08:11:52.372Z,99939.25
2018-05-03T08:14:20.824Z,99945.39
2018-05-03T08:16:49.243Z,99950.97
2018-05-03T08:19:17.667Z,99948.83
2018-05-03T08:21:46.128Z,99953.30
2018-05-03T08:24:14.551Z,99961.27
2018-05-03T08:26:42.975Z,99951.45
2018-05-03T08:29:11.436Z,99962.33
2018-05-03T08:31:39.873Z,99967.61
2018-05-03T08:34:08.310Z,99966.09
2018-05-03T08:36:36.802Z,99972.34
2018-05-03T08:39:06.040Z,99975.42
2018-05-03T08:41:34.457Z,99983.11
2018-05-03T08:44:02.952Z,99979.26
2018-05-03T08:46:31.408Z,99991.91
2018-05-03T08:48:59.829Z,99990.62
2018-05-03T08:51:28.282Z,99992.95
2018-05-03T08:53:56.725Z,99999.75
2018-05-03T08:56:25.132Z,99993.75
2018-05-03T08:58:53.603Z,100002.09
2018-05-03T09:01:22.137Z,99992.55
2018-05-03T09:03:50.484Z,99994.80
2018-05-03T09:06:18.972Z,100003.30
2018-05-03T09:08:47.404Z,100009.55
2018-05-03T09:11:15.858Z,100013.90
2018-05-03T09:13:44.331Z,100021.59
2018-05-03T09:16:12.753Z,100025.03
2018-05-03T09:18:41.179Z,100027.59
2018-05-03T09:21:09.636Z,100031.25
2018-05-03T09:23:38.059Z,100030.98
2018-05-03T09:26:06.500Z,100028.77
2018-05-03T09:28:34.981Z,100032.78
2018-05-03T09:31:03.414Z,100038.84
2018-05-03T09:33:31.849Z,100036.20
2018-05-03T09:36:00.316Z,100036.13
2018-05-03T09:38:28.822Z,100041.66
2018-05-03T09:40:57.213Z,100051.75
2018-05-03T09:43:25.676Z,100048.22
2018-05-03T09:45:54.105Z,100052.99
2018-05-03T09:48:22.532Z,100054.26
2018-05-03T09:50:51.005Z,100051.05
2018-05-03T09:53:19.431Z,100057.41
2018-05-03T09:55:47.864Z,100051.64
2018-05-03T09:58:16.348Z,100051.16
2018-05-03T10:00:44.784Z,100040.63
2018-05-03T10:03:13.208Z,100041.53
2018-05-03T10:05:41.676Z,100044.98
2018-05-03T10:08:10.104Z,100052.03
2018-05-03T10:10:38.520Z,100048.85
2018-05-03T10:13:07.004Z,100051.13
2018-05-03T10:15:35.428Z,100047.14
2018-05-03T10:18:03.851Z,100049.25
2018-05-03T10:20:32.336Z,100048.27
2018-05-03T10:23:00.760Z,100046.89
2018-05-03T10:25:29.253Z,100046.61
2018-05-03T10:27:57.729Z,100053.55
2018-05-03T10:30:26.171Z,100057.64
2018-05-03T10:32:54.610Z,100060.94
2018-05-03T10:35:23.060Z,100051.44
2018-05-03T10:37:51.480Z,100067.62
2018-05-03T10:40:19.902Z,100066.88
2018-05-03T10:42:48.384Z,100063.98
2018-05-03T10:45:16.824Z,100073.47
2018-05-03T10:47:45.254Z,100070.16
2018-05-03T10:50:13.724Z,100071.17
2018-05-03T10:52:42.143Z,100073.16
2018-05-03T10:55:10.588Z,100077.44
2018-05-03T10:57:39.047Z,100076.66
2018-05-03T11:00:07.491Z,100085.48
2018-05-03T11:02:35.899Z,100082.88
2018-05-03T11:05:04.380Z,100083.25
2018-05-03T11:07:32.815Z,100084.86
2018-05-03T11:10:01.241Z,100088.77
2018-05-03T11:12:29.702Z,100083.29
2018-05-03T11:14:58.132Z,100090.44
2018-05-03T11:17:26.552Z,100087.64
2018-05-03T11:19:55.009Z,100086.23
2018-05-03T11:22:23.433Z,100093.70
2018-05-03T11:24:51.868Z,100091.48
2018-05-03T11:27:20.323Z,100100.84
2018-05-03T11:29:48.741Z,100091.29
2018-05-03T11:32:17.170Z,100105.45
2018-05-03T11:34:45.673Z,100095.33
2018-05-03T11:37:14.116Z,100090.10
2018-05-03T11:39:42.561Z,100102.78
2018-05-03T11:42:11.040Z,100099.84
2018-05-03T11:44:39.468Z,100108.13
2018-05-03T11:47:07.896Z,100099.57
2018-05-03T11:49:36.363Z,100100.36
2018-05-03T11:52:04.805Z,100105.36
2018-05-03T11:54:33.220Z,100112.48
2018-05-03T11:57:01.700Z,100117.42
2018-05-03T12:02:21.296Z,100114.84
2018-05-03T12:04:49.720Z,100110.17
2018-05-03T12:07:18.144Z,100109.39
2018-05-03T12:09:46.613Z,100104.58
2018-05-03T12:12:15.041Z,100114.88
2018-05-03T12:14:43.461Z,100113.34
2018-05-03T12:17:11.932Z,100116.61
2018-05-03T12:19:40.361Z,100115.53
2018-05-03T12:22:08.781Z,100116.78
2018-05-03T12:24:37.244Z,100120.39
2018-05-03T12:29:56.848Z,100127.29
2018-05-03T12:32:25.272Z,100134.67
2018-05-03T12:34:53.708Z,100135.75
2018-05-03T12:37:22.181Z,100136.45
2018-05-03T12:39:50.604Z,100128.62
2018-05-03T12:42:19.024Z,100133.35
2018-05-03T12:44:47.505Z,100129.66
2018-05-03T12:47:15.935Z,100126.23
2018-05-03T12:49:44.356Z,100124.58
2018-05-03T12:52:12.810Z,100123.57
2018-05-03T12:54:41.229Z,100124.28
2018-05-03T12:57:09.654Z,100119.83
2018-05-03T12:59:38.134Z,100128.11
2018-05-03T13:02:06.562Z,100120.17
2018-05-03T13:04:34.984Z,100118.27
2018-05-03T13:07:03.933Z,100123.48
2018-05-03T13:09:32.348Z,100125.86
2018-05-03T13:12:00.774Z,100131.10
2018-05-03T13:17:03.906Z,100134.34
2018-05-03T13:19:32.371Z,100131.67
2018-05-03T13:22:00.795Z,100127.10
2018-05-03T13:24:29.212Z,100128.05
2018-05-03T13:26:57.661Z,100136.92
2018-05-03T13:29:26.089Z,100134.29
2018-05-03T13:31:54.522Z,100132.66
2018-05-03T13:34:23.008Z,100135.01
2018-05-03T13:36:51.417Z,100133.38
2018-05-03T13:39:19.828Z,100131.91
2018-05-03T13:41:48.284Z,100138.56
2018-05-03T13:44:16.707Z,100143.91
2018-05-03T13:46:45.129Z,100140.47
2018-05-03T13:49:13.649Z,100139.39
2018-05-03T13:51:42.060Z,100136.34
2018-05-03T13:54:10.477Z,100140.86
2018-05-03T13:56:38.941Z,100135.31
2018-05-03T13:59:07.364Z,100135.63
2018-05-03T14:01:35.784Z,100134.10
2018-05-03T14:04:04.240Z,100132.88
2018-05-03T14:06:32.676Z,100137.00
2018-05-03T14:09:01.102Z,100131.20
2018-05-03T14:11:29.564Z,100138.69
2018-05-03T14:13:57.992Z,100142.98
2018-05-03T14:16:26.408Z,100148.20
2018-05-03T14:18:54.884Z,100148.98
2018-05-03T14:21:23.315Z,100148.01
2018-05-03T14:23:51.733Z,100147.55
2018-05-03T14:26:20.213Z,100151.69
2018-05-03T14:28:48.636Z,100156.91
2018-05-03T14:31:17.549Z,100158.63
2018-05-03T14:33:46.027Z,100149.69
2018-05-03T14:36:14.464Z,100147.69
2018-05-03T14:38:42.896Z,100138.73
2018-05-03T14:41:11.388Z,100140.05
2018-05-03T14:43:39.820Z,100135.63
2018-05-03T14:46:08.250Z,100132.33
2018-05-03T14:48:36.708Z,100139.55
2018-05-03T14:51:05.140Z,100143.46
2018-05-03T14:53:33.572Z,100137.44
2018-05-03T14:56:02.060Z,100139.69
2018-05-03T14:58:30.493Z,100151.99
2018-05-03T15:00:58.923Z,100147.73
2018-05-03T15:03:27.409Z,100147.95
2018-05-03T15:05:55.837Z,100150.25
2018-05-03T15:08:24.272Z,100154.92
2018-05-03T15:10:52.751Z,100145.03
2018-05-03T15:13:21.176Z,100155.36
2018-05-03T15:15:49.596Z,100153.69
2018-05-03T15:18:18.051Z,100154.50
2018-05-03T15:20:46.478Z,100154.64
2018-05-03T15:23:14.912Z,100162.78
2018-05-03T15:25:43.400Z,100156.94
2018-05-03T15:28:11.821Z,100164.73
2018-05-03T15:30:40.246Z,100161.36
2018-05-03T15:33:08.729Z,100172.52
2018-05-03T15:35:37.148Z,100172.30
2018-05-03T15:38:05.730Z,100169.70
2018-05-03T15:40:34.213Z,100177.09
2018-05-03T15:43:02.660Z,100182.15
2018-05-03T15:45:31.136Z,100182.00
2018-05-03T15:47:59.601Z,100179.25
2018-05-03T15:50:28.028Z,100185.20
2018-05-03T15:52:56.442Z,100188.05
2018-05-03T15:55:24.984Z,100184.14
2018-05-03T15:57:53.404Z,100182.17
2018-05-03T16:00:21.899Z,100185.70
2018-05-03T16:02:50.384Z,100186.78
2018-05-03T16:05:18.809Z,100189.27
2018-05-03T16:07:47.228Z,100185.84
2018-05-03T16:10:15.712Z,100185.87
2018-05-03T16:12:44.133Z,100190.64
2018-05-03T16:15:12.560Z,100194.25
2018-05-03T16:17:41.021Z,100190.16
2018-05-03T16:20:09.449Z,100186.52
2018-05-03T16:22:37.876Z,100190.21
2018-05-03T16:25:06.548Z,100193.48
2018-05-03T16:27:34.967Z,100193.78
2018-05-03T16:30:03.433Z,100194.52
2018-05-03T16:32:31.889Z,100198.61
2018-05-03T16:35:00.379Z,100202.42
2018-05-03T16:37:28.777Z,100200.24
2018-05-03T16:39:57.248Z,100197.45
2018-05-03T16:42:25.660Z,100197.98
2018-05-03T16:44:54.093Z,100205.31
2018-05-03T16:47:22.560Z,100203.15
2018-05-03T16:49:51.014Z,100207.31
2018-05-03T16:52:19.444Z,100202.20
2018-05-03T16:54:47.939Z,100200.19
2018-05-03T16:57:16.364Z,100206.99
2018-05-03T16:59:44.784Z,100208.34
2018-05-03T17:02:13.246Z,100213.20
2018-05-03T17:04:41.665Z,100211.94
2018-05-03T17:07:10.080Z,100206.48
2018-05-03T17:09:38.549Z,100215.30
2018-05-03T17:12:06.975Z,100227.39
2018-05-03T17:14:35.401Z,100224.72
2018-05-03T17:17:03.861Z,100225.50
2018-05-03T17:19:32.294Z,100229.01
2018-05-03T17:22:00.729Z,100233.72
2018-05-03T17:24:29.240Z,100232.59
2018-05-03T17:26:57.646Z,100232.16
2018-05-03T17:29:26.143Z,100242.03
2018-05-03T17:31:55.216Z,100241.88
2018-05-03T17:34:23.672Z,100248.17
2018-05-03T17:36:52.105Z,100244.78
2018-05-03T17:39:20.765Z,100254.13
2018-05-03T17:41:49.219Z,100260.06
2018-05-03T17:44:17.647Z,100266.45
2018-05-03T17:46:46.119Z,100268.51
2018-05-03T17:49:14.544Z,100270.44
2018-05-03T17:51:42.968Z,100276.95
2018-05-03T17:54:11.435Z,100277.87
2018-05-03T17:56:39.852Z,100282.30
2018-05-03T17:59:08.300Z,100281.18
2018-05-03T18:01:36.772Z,100286.28
2018-05-03T18:04:05.209Z,100285.31
2018-05-03T18:06:33.674Z,100288.13
2018-05-03T18:09:02.137Z,100288.61
2018-05-03T18:11:30.556Z,100286.38
2018-05-03T18:13:58.976Z,100299.72
2018-05-03T18:16:27.523Z,100299.91
2018-05-03T18:18:55.888Z,100315.52
2018-05-03T18:21:24.406Z,100315.47
2018-05-03T18:23:52.832Z,100320.30
2018-05-03T18:26:21.254Z,100320.36
2018-05-03T18:28:49.684Z,100320.54
2018-05-03T18:31:18.172Z,100323.59
2018-05-03T18:33:46.599Z,100330.25
2018-05-03T18:36:15.029Z,100334.05
2018-05-03T18:38:43.500Z,100344.44
2018-05-03T18:41:12.264Z,100345.21
2018-05-03T18:43:40.710Z,100350.27
2018-05-03T18:46:09.183Z,100351.08
2018-05-03T18:48:37.613Z,100354.63
2018-05-03T18:51:06.038Z,100356.57
2018-05-03T18:53:34.548Z,100366.34
2018-05-03T18:56:02.978Z,100370.64
2018-05-03T18:58:31.393Z,100369.95
2018-05-03T19:00:59.887Z,100367.62
2018-05-03T19:03:28.321Z,100374.53
2018-05-03T19:05:56.741Z,100373.61
2018-05-03T19:08:25.212Z,100375.61
2018-05-03T19:10:53.812Z,100377.98
2018-05-03T19:13:22.355Z,100380.35
2018-05-03T19:15:50.898Z,100385.26
2018-05-03T19:18:19.573Z,100392.13
2018-05-03T19:20:48.001Z,100399.61
2018-05-03T19:23:16.624Z,100411.73
2018-05-03T19:25:45.104Z,100413.42
2018-05-03T19:28:13.637Z,100417.11
2018-05-03T19:30:42.292Z,100423.42
2018-05-03T19:33:10.741Z,100425.42
2018-05-03T19:35:39.169Z,100423.76
2018-05-03T19:38:07.793Z,100421.08
2018-05-03T19:40:36.466Z,100419.98
2018-05-03T19:43:05.124Z,100418.64
2018-05-03T19:45:33.718Z,100415.44
2018-05-03T19:48:02.327Z,100418.48
2018-05-03T19:50:30.996Z,100417.55
2018-05-03T19:52:59.697Z,100419.91
2018-05-03T19:55:28.413Z,100434.28
2018-05-03T19:57:56.873Z,100443.52
2018-05-03T20:00:25.341Z,100442.91
2018-05-03T20:02:53.762Z,100441.93
2018-05-03T20:05:22.181Z,100447.65
2018-05-03T20:07:50.668Z,100448.73
2018-05-03T20:10:19.212Z,100454.98
2018-05-03T20:12:47.639Z,100456.32
2018-05-03T20:15:16.142Z,100460.55
2018-05-03T20:17:44.565Z,100461.27
2018-05-03T20:20:12.987Z,100459.77
2018-05-03T20:22:41.468Z,100460.35
2018-05-03T20:25:09.881Z,100462.34
2018-05-03T20:27:38.292Z,100459.92
2018-05-03T20:30:06.744Z,100461.66
2018-05-03T20:32:35.160Z,100461.34
2018-05-03T20:35:03.624Z,100461.70
2018-05-03T20:37:32.077Z,100467.77
2018-05-03T20:40:00.524Z,100474.66
2018-05-03T20:42:28.964Z,100483.56
2018-05-03T20:44:57.416Z,100485.45
2018-05-03T20:47:25.840Z,100485.68
2018-05-03T20:49:54.256Z,100487.59
2018-05-03T20:52:22.722Z,100487.00
2018-05-03T20:54:51.138Z,100489.80
2018-05-03T20:57:19.544Z,100492.75
2018-05-03T20:59:48.001Z,100490.78
2018-05-03T21:02:16.416Z,100483.26
2018-05-03T21:04:44.839Z,100488.44
2018-05-03T21:07:13.401Z,100481.26
2018-05-03T21:09:41.768Z,100485.86
2018-05-03T21:12:10.192Z,100497.36
2018-05-03T21:14:38.645Z,100495.36
2018-05-03T21:17:07.077Z,100497.20
2018-05-03T21:19:35.545Z,100499.18
2018-05-03T21:22:04.036Z,100496.30
2018-05-03T21:24:32.464Z,100504.27
2018-05-03T21:27:00.892Z,100507.67
2018-05-03T21:29:29.380Z,100505.45
2018-05-03T21:31:57.817Z,100510.12
2018-05-03T21:34:26.244Z,100517.33
2018-05-03T21:36:54.748Z,100518.61
2018-05-03T21:39:23.169Z,100515.09
2018-05-03T21:41:51.584Z,100512.82
2018-05-03T21:44:20.051Z,100514.82
2018-05-03T21:46:48.492Z,100512.16
2018-05-03T21:49:16.907Z,100516.78
2018-05-03T21:51:45.374Z,100517.81
2018-05-03T21:54:13.793Z,100522.75
2018-05-03T21:56:42.216Z,100518.48
2018-05-03T21:59:10.679Z,100518.73
2018-05-03T22:01:39.108Z,100516.27
2018-05-03T22:04:07.580Z,100522.53
2018-05-03T22:06:36.046Z,100522.44
2018-05-03T22:09:04.527Z,100527.42
2018-05-03T22:11:32.960Z,100523.98
2018-05-03T22:14:01.433Z,100521.45
2018-05-03T22:16:29.851Z,100528.14
2018-05-03T22:18:58.283Z,100528.91
2018-05-03T22:21:26.765Z,100535.59
2018-05-03T22:23:55.189Z,100529.78
2018-05-03T22:26:23.628Z,100530.79
2018-05-03T22:28:52.104Z,100537.73
2018-05-03T22:31:20.533Z,100539.49
2018-05-03T22:33:48.947Z,100538.53
2018-05-03T22:36:17.420Z,100545.75
2018-05-03T22:38:45.831Z,100545.26
2018-05-03T22:41:14.245Z,100541.52
2018-05-03T22:43:42.707Z,100551.34
2018-05-03T22:46:11.124Z,100547.00
2018-05-03T22:48:39.540Z,100553.67
2018-05-03T22:51:08.000Z,100549.13
2018-05-03T22:53:36.425Z,100546.98
2018-05-03T22:56:04.844Z,100553.80
2018-05-03T22:58:33.298Z,100556.22
2018-05-03T23:01:01.716Z,100557.72
2018-05-03T23:03:30.146Z,100560.22
2018-05-03T23:05:58.619Z,100553.51
2018-05-03T23:08:27.032Z,100550.70
2018-05-03T23:10:55.441Z,100549.64
2018-05-03T23:13:23.892Z,100554.86
2018-05-03T23:15:52.307Z,100541.33
2018-05-03T23:18:20.729Z,100539.00
2018-05-03T23:20:49.186Z,100532.25
2018-05-03T23:23:17.604Z,100527.91
2018-05-03T23:25:46.020Z,100530.36
2018-05-03T23:28:14.477Z,100536.30
2018-05-03T23:30:42.902Z,100542.21
2018-05-03T23:33:11.348Z,100541.25
2018-05-03T23:35:39.796Z,100537.85
2018-05-03T23:38:08.219Z,100538.59
2018-05-03T23:40:36.644Z,100542.36
2018-05-03T23:43:05.099Z,100539.05
2018-05-03T23:45:33.548Z,100543.18
2018-05-03T23:48:01.971Z,100544.27
2018-05-03T23:50:30.635Z,100551.72
2018-05-03T23:52:59.055Z,100547.96
2018-05-03T23:55:27.483Z,100551.50
2018-05-03T23:57:55.953Z,100549.42
